Time;durP1;ratioP1;P1;durP2;ratioP2;P2;SDS_P1;SDS_P2;PMS_P1;PMS_P2;Temp;Humidity;BMP_temperature;BMP_pressure;BME280_temperature;BME280_humidity;BME280_pressure;Samples;Min_cycle;Max_cycle;Signal;HPM_P1;HPM_P2
2022/10/28 00:04:19;;;;;;;17.13;6.83;;;13.20;28.20;;;;;;5052192;28;20972;-88
2022/10/28 00:06:44;;;;;;;21.13;6.63;;;13.10;26.20;;;;;;5049640;28;20473;-88
2022/10/28 00:09:27;;;;;;;18.17;6.60;;;13.10;27.10;;;;;;5035849;28;20762;-88
2022/10/28 00:11:56;;;;;;;16.97;7.20;;;13.00;29.70;;;;;;5068517;28;20179;-88
2022/10/28 00:14:26;;;;;;;21.03;6.77;;;13.00;28.60;;;;;;5059269;28;20398;-88
2022/10/28 00:16:56;;;;;;;20.33;7.30;;;13.00;33.80;;;;;;5062142;28;20429;-89
2022/10/28 00:19:26;;;;;;;14.43;6.87;;;13.00;35.80;;;;;;5055101;28;20489;-89
2022/10/28 00:21:56;;;;;;;24.80;7.60;;;12.90;35.60;;;;;;5043485;28;20473;-88
2022/10/28 00:24:26;;;;;;;25.27;7.57;;;12.90;38.00;;;;;;5056362;28;20447;-89
2022/10/28 00:27:32;;;;;;;15.53;8.07;;;12.90;38.00;;;;;;5056039;28;20944;-88
2022/10/28 00:33:19;;;;;;;20.80;7.50;;;12.80;44.30;;;;;;5036555;28;20374;-88
2022/10/28 00:39:14;;;;;;;21.37;9.27;;;12.80;44.50;;;;;;5050387;28;20261;-88
2022/10/28 00:42:16;;;;;;;16.90;8.40;;;12.80;44.40;;;;;;5055431;28;20451;-82
2022/10/28 00:44:58;;;;;;;26.83;7.07;;;12.80;44.40;;;;;;5047053;28;20815;-82
2022/10/28 00:47:50;;;;;;;16.43;7.60;;;12.80;44.30;;;;;;5048669;28;20426;-82
2022/10/28 00:50:38;;;;;;;19.00;7.47;;;12.80;44.60;;;;;;5054065;28;20820;-82
2022/10/28 00:53:34;;;;;;;20.93;7.60;;;12.90;44.70;;;;;;5055472;28;20522;-82
2022/10/28 00:56:49;;;;;;;18.63;7.60;;;12.90;44.40;;;;;;4974644;28;20436;-88
2022/10/28 01:02:45;;;;;;;15.13;7.30;;;12.90;44.70;;;;;;4975049;28;20571;-88
2022/10/28 01:05:23;;;;;;;20.73;7.17;;;13.00;44.50;;;;;;4975176;28;20444;-88
2022/10/28 01:11:22;;;;;;;23.77;7.43;;;13.10;44.80;;;;;;4974991;28;20461;-82
2022/10/28 01:14:43;;;;;;;20.30;7.37;;;13.10;44.90;;;;;;4953232;28;20525;-82
2022/10/28 01:18:01;;;;;;;22.87;8.23;;;13.20;44.90;;;;;;4974001;28;20390;-82
2022/10/28 01:21:06;;;;;;;16.00;7.90;;;13.20;44.90;;;;;;4970597;28;20417;-82
2022/10/28 01:24:09;;;;;;;13.17;6.67;;;13.30;44.90;;;;;;4959586;28;20425;-82
2022/10/28 01:27:06;;;;;;;15.23;7.13;;;13.30;44.80;;;;;;4974659;28;20424;-89
2022/10/28 01:33:37;;;;;;;12.23;6.93;;;13.40;44.90;;;;;;5025904;28;20837;-89
2022/10/28 01:36:03;;;;;;;13.57;6.57;;;13.40;43.40;;;;;;5055334;28;20429;-89
2022/10/28 01:38:47;;;;;;;21.33;7.43;;;13.40;44.90;;;;;;5055099;28;20418;-89
2022/10/28 01:41:32;;;;;;;13.27;7.13;;;13.50;45.00;;;;;;5051062;28;20638;-82
2022/10/28 01:44:37;;;;;;;21.10;8.10;;;13.40;44.90;;;;;;5036316;28;20422;-82
2022/10/28 01:47:50;;;;;;;19.80;7.60;;;13.40;44.90;;;;;;5050710;28;20409;-82
2022/10/28 01:50:48;;;;;;;15.30;6.63;;;13.50;45.00;;;;;;5053957;28;20449;-82
2022/10/28 01:53:51;;;;;;;21.83;7.57;;;13.50;45.00;;;;;;4972674;28;20806;-82
2022/10/28 01:59:46;;;;;;;32.03;7.40;;;13.60;45.10;;;;;;4966317;28;20927;-89
2022/10/28 02:02:45;;;;;;;13.40;6.90;;;13.60;45.10;;;;;;4970791;28;20422;-89
2022/10/28 02:12:12;;;;;;;19.13;7.10;;;13.70;37.40;;;;;;4974043;28;20421;-89
2022/10/28 02:15:18;;;;;;;17.33;6.53;;;13.70;40.90;;;;;;4974111;28;20420;-89
2022/10/28 02:17:56;;;;;;;15.30;6.20;;;13.70;45.20;;;;;;4973978;28;20433;-89
2022/10/28 02:21:07;;;;;;;14.67;6.57;;;13.70;45.40;;;;;;4974373;28;20386;-89
2022/10/28 02:30:36;;;;;;;12.57;6.20;;;13.70;45.10;;;;;;5029383;28;20696;-89
2022/10/28 02:36:24;;;;;;;11.50;6.27;;;13.80;45.30;;;;;;5037130;28;20422;-89
2022/10/28 02:42:17;;;;;;;14.07;6.30;;;13.80;45.60;;;;;;5038137;28;20380;-82
2022/10/28 02:44:48;;;;;;;16.40;6.70;;;13.90;45.40;;;;;;5039827;28;20419;-82
2022/10/28 02:47:29;;;;;;;15.33;7.00;;;13.90;45.40;;;;;;5053267;28;20400;-82
2022/10/28 02:50:16;;;;;;;19.90;6.67;;;13.90;45.40;;;;;;5052060;28;20468;-82
2022/10/28 02:52:55;;;;;;;19.83;6.10;;;13.90;45.40;;;;;;5040965;28;20960;-82
2022/10/28 02:55:38;;;;;;;15.73;6.60;;;14.00;45.40;;;;;;5045731;28;20854;-82
2022/10/28 02:58:41;;;;;;;13.03;6.17;;;14.00;45.50;;;;;;5049546;28;20393;-89
2022/10/28 03:01:38;;;;;;;11.13;6.20;;;14.10;39.70;;;;;;5054194;28;20391;-89
2022/10/28 03:04:18;;;;;;;23.27;6.60;;;14.10;35.30;;;;;;5048554;28;20436;-89
2022/10/28 03:14:07;;;;;;;14.43;6.20;;;14.10;39.60;;;;;;5057430;28;20466;-82
2022/10/28 03:16:38;;;;;;;17.73;6.33;;;14.10;35.60;;;;;;5056966;28;20392;-82
2022/10/28 03:19:08;;;;;;;18.43;6.40;;;14.10;32.20;;;;;;5057284;28;20740;-82
2022/10/28 03:21:38;;;;;;;25.50;6.03;;;14.10;32.40;;;;;;5056739;28;20429;-83
2022/10/28 03:24:08;;;;;;;22.03;6.23;;;14.10;33.00;;;;;;5057198;28;20485;-82
2022/10/28 03:30:08;;;;;;;19.53;6.50;;;14.20;33.20;;;;;;5057054;28;20461;-89
2022/10/28 03:33:07;;;;;;;19.63;6.40;;;14.20;30.90;;;;;;5075806;28;20391;-89
2022/10/28 03:38:55;;;;;;;18.27;6.43;;;14.20;33.00;;;;;;5049002;28;20410;-89
2022/10/28 03:48:05;;;;;;;17.40;6.20;;;14.20;35.80;;;;;;5037519;28;20400;-87
2022/10/28 03:50:30;;;;;;;17.20;6.73;;;14.20;39.30;;;;;;5055551;28;20957;-88
2022/10/28 03:53:37;;;;;;;12.77;7.20;;;14.20;45.50;;;;;;5054546;28;20225;-89
2022/10/28 03:56:25;;;;;;;19.27;6.77;;;14.20;42.00;;;;;;5049533;28;20184;-89
2022/10/28 03:58:51;;;;;;;19.97;6.37;;;14.30;45.90;;;;;;5048556;28;20509;-82
2022/10/28 04:01:26;;;;;;;13.03;6.63;;;14.20;45.80;;;;;;5043991;28;20519;-82
2022/10/28 04:04:08;;;;;;;17.70;7.20;;;14.20;45.60;;;;;;5047907;28;20537;-82
2022/10/28 04:06:55;;;;;;;27.40;8.60;;;14.30;45.70;;;;;;5056308;28;20419;-82
2022/10/28 04:12:43;;;;;;;23.80;8.27;;;14.20;45.60;;;;;;5038179;28;20368;-89
2022/10/28 04:18:31;;;;;;;20.90;8.20;;;14.30;45.70;;;;;;5052714;28;20183;-89
2022/10/28 04:24:18;;;;;;;26.83;9.50;;;14.30;45.70;;;;;;5047735;28;20225;-89
2022/10/28 04:27:07;;;;;;;19.37;8.40;;;14.30;45.70;;;;;;5050154;28;20422;-84
2022/10/28 04:29:38;;;;;;;19.00;8.73;;;14.30;45.70;;;;;;5036311;28;20475;-83
2022/10/28 04:36:01;;;;;;;18.00;8.57;;;14.40;45.80;;;;;;5044705;28;20340;-83
2022/10/28 04:38:32;;;;;;;16.43;7.70;;;14.40;45.70;;;;;;5054278;28;20494;-82
2022/10/28 04:41:14;;;;;;;19.40;8.57;;;14.40;45.80;;;;;;5042066;28;20415;-82
2022/10/28 04:44:01;;;;;;;26.13;8.10;;;14.40;45.90;;;;;;5048360;28;20476;-83
2022/10/28 04:47:01;;;;;;;21.10;8.13;;;14.40;45.80;;;;;;5046572;28;20414;-82
2022/10/28 04:53:31;;;;;;;29.97;8.30;;;14.40;45.80;;;;;;5054898;28;20855;-82
2022/10/28 04:56:08;;;;;;;25.07;8.53;;;14.40;45.70;;;;;;5052972;28;20438;-82
2022/10/28 05:01:56;;;;;;;15.60;8.23;;;14.30;45.70;;;;;;5053390;28;20803;-89
2022/10/28 05:04:59;;;;;;;16.60;8.37;;;14.30;45.70;;;;;;5053687;28;20405;-89
2022/10/28 05:10:49;;;;;;;27.30;6.73;;;14.30;45.70;;;;;;5055117;28;20535;-89
2022/10/28 05:13:32;;;;;;;32.73;8.67;;;14.20;45.60;;;;;;5055891;28;20489;-84
2022/10/28 05:16:02;;;;;;;22.07;8.60;;;14.20;45.60;;;;;;5052110;28;20936;-82
2022/10/28 05:18:28;;;;;;;13.00;7.70;;;14.30;45.90;;;;;;5054396;28;20517;-82
2022/10/28 05:21:02;;;;;;;19.90;8.30;;;14.20;45.60;;;;;;5053639;28;20462;-82
2022/10/28 05:23:32;;;;;;;21.53;8.63;;;14.20;45.60;;;;;;5053841;28;20209;-82
2022/10/28 05:26:08;;;;;;;16.63;8.50;;;14.20;45.60;;;;;;5040695;28;20429;-84
2022/10/28 05:29:07;;;;;;;28.00;8.20;;;14.20;45.60;;;;;;5054720;28;20406;-89
2022/10/28 05:32:07;;;;;;;35.93;9.20;;;14.20;45.60;;;;;;5056702;28;20487;-89
2022/10/28 05:38:25;;;;;;;22.47;8.40;;;14.10;45.60;;;;;;5050610;28;20441;-87
2022/10/28 05:40:51;;;;;;;21.90;7.77;;;14.00;45.40;;;;;;5053071;28;20511;-77
2022/10/28 05:43:32;;;;;;;12.53;7.63;;;14.00;45.50;;;;;;5041161;28;20418;-81
2022/10/28 05:46:03;;;;;;;17.03;7.50;;;14.00;45.60;;;;;;5054134;28;20615;-81
2022/10/28 05:49:19;;;;;;;33.97;7.93;;;13.90;45.40;;;;;;5049317;28;20389;-81
2022/10/28 05:55:06;;;;;;;13.53;7.70;;;13.80;45.30;;;;;;5041245;28;20425;-81
2022/10/28 05:57:45;;;;;;;32.90;8.70;;;13.80;45.30;;;;;;5054150;28;20417;-79
2022/10/28 06:00:15;;;;;;;22.47;8.13;;;13.80;45.30;;;;;;5052378;28;20763;-77
2022/10/28 06:02:41;;;;;;;33.33;8.23;;;13.70;45.30;;;;;;5054185;28;20398;-77
2022/10/28 06:05:09;;;;;;;23.07;7.57;;;13.70;45.20;;;;;;5046677;28;20438;-77
2022/10/28 06:07:39;;;;;;;14.83;8.10;;;13.60;49.30;;;;;;5037664;28;20492;-77
2022/10/28 06:10:20;;;;;;;20.53;7.53;;;13.60;45.10;;;;;;5034246;28;20420;-78
2022/10/28 06:12:50;;;;;;;14.40;7.67;;;13.60;45.10;;;;;;5041296;28;20406;-77
2022/10/28 06:15:20;;;;;;;22.83;7.80;;;13.60;45.30;;;;;;5049087;28;20889;-76
2022/10/28 06:17:49;;;;;;;20.43;8.80;;;13.70;45.40;;;;;;5052661;28;20420;-77
2022/10/28 06:20:20;;;;;;;15.80;8.97;;;13.60;45.10;;;;;;5052652;28;20437;-77
2022/10/28 06:22:51;;;;;;;20.27;8.10;;;13.70;45.30;;;;;;5054292;28;20402;-77
2022/10/28 06:25:18;;;;;;;29.23;8.00;;;13.80;45.50;;;;;;5053829;28;20419;-76
2022/10/28 06:28:08;;;;;;;29.07;8.60;;;13.80;45.40;;;;;;5038271;28;20423;-76
2022/10/28 06:30:50;;;;;;;17.90;9.00;;;13.80;45.30;;;;;;5033949;28;20459;-80
2022/10/28 06:33:32;;;;;;;17.90;8.63;;;13.90;45.40;;;;;;5033405;28;20426;-80
2022/10/28 06:36:25;;;;;;;27.83;9.50;;;13.90;45.40;;;;;;5045301;28;20413;-81
2022/10/28 06:38:52;;;;;;;14.70;8.80;;;14.00;45.50;;;;;;5033163;28;20401;-81
2022/10/28 06:42:01;;;;;;;23.00;9.20;;;14.00;45.50;;;;;;5048636;28;20931;-82
2022/10/28 06:44:51;;;;;;;21.53;8.70;;;14.10;45.70;;;;;;5053372;28;20425;-82
2022/10/28 06:47:43;;;;;;;22.40;8.40;;;14.20;45.60;;;;;;5040845;28;20465;-80
2022/10/28 06:50:37;;;;;;;16.80;7.87;;;14.20;45.60;;;;;;5053010;28;20449;-80
2022/10/28 06:53:14;;;;;;;28.93;8.37;;;14.30;45.90;;;;;;5053217;28;20751;-80
2022/10/28 06:55:54;;;;;;;26.73;7.90;;;14.40;45.90;;;;;;5046754;28;20445;-81
2022/10/28 06:58:42;;;;;;;20.53;7.70;;;14.40;45.80;;;;;;5048836;28;20396;-80
2022/10/28 07:01:21;;;;;;;17.33;7.97;;;14.50;45.90;;;;;;5041496;28;20446;-80
2022/10/28 07:04:02;;;;;;;19.20;8.17;;;14.60;46.00;;;;;;5047823;28;20412;-80
2022/10/28 07:06:32;;;;;;;21.80;8.10;;;14.60;46.00;;;;;;5039869;28;20422;-80
2022/10/28 07:09:19;;;;;;;31.57;8.10;;;14.70;46.10;;;;;;5052856;28;20406;-80
2022/10/28 07:11:47;;;;;;;20.70;7.73;;;14.70;46.00;;;;;;5048336;28;20426;-80
2022/10/28 07:14:14;;;;;;;19.47;7.73;;;14.80;46.10;;;;;;5053303;28;20405;-77
2022/10/28 07:17:02;;;;;;;21.53;7.73;;;14.80;45.80;;;;;;5052982;28;20414;-76
2022/10/28 07:19:28;;;;;;;14.37;8.40;;;14.80;46.30;;;;;;5047770;28;20413;-76
2022/10/28 07:22:19;;;;;;;19.30;8.47;;;14.90;40.30;;;;;;5053287;28;20389;-79
2022/10/28 07:24:45;;;;;;;14.10;7.93;;;15.00;37.00;;;;;;5046774;28;20407;-79
2022/10/28 07:27:11;;;;;;;24.60;8.80;;;15.00;41.80;;;;;;5043600;28;20513;-75
2022/10/28 07:29:38;;;;;;;19.57;7.97;;;15.00;39.10;;;;;;5062557;28;20586;-78
2022/10/28 07:32:08;;;;;;;16.27;8.07;;;15.10;39.90;;;;;;5052866;28;20433;-79
2022/10/28 07:34:38;;;;;;;41.43;9.07;;;15.20;36.30;;;;;;5046261;28;20423;-77
2022/10/28 07:37:09;;;;;;;12.77;8.20;;;15.30;27.00;;;;;;5055441;28;20392;-77
2022/10/28 07:39:38;;;;;;;23.47;7.67;;;15.40;26.90;;;;;;5053303;28;20958;-78
2022/10/28 07:42:20;;;;;;;15.33;7.23;;;15.50;26.40;;;;;;5047672;28;20397;-78
2022/10/28 07:44:56;;;;;;;23.73;7.80;;;15.60;28.00;;;;;;5049447;28;20780;-77
2022/10/28 07:47:22;;;;;;;13.87;7.73;;;15.70;26.10;;;;;;5044095;28;20973;-77
2022/10/28 07:49:50;;;;;;;13.53;7.43;;;15.80;24.10;;;;;;5044634;28;20532;-77
2022/10/28 07:52:20;;;;;;;14.47;8.03;;;15.80;25.50;;;;;;5047368;28;20172;-78
2022/10/28 07:54:46;;;;;;;18.43;8.00;;;15.90;23.30;;;;;;5053838;28;20923;-78
2022/10/28 07:57:26;;;;;;;8.83;6.67;;;16.00;23.10;;;;;;5050652;28;20393;-78
2022/10/28 07:59:52;;;;;;;27.37;7.67;;;16.20;22.80;;;;;;5046042;28;20178;-78
2022/10/28 08:02:26;;;;;;;19.47;7.10;;;16.30;22.10;;;;;;5042659;28;20414;-78
2022/10/28 08:04:56;;;;;;;22.20;7.33;;;16.40;20.70;;;;;;5037810;28;20175;-77
2022/10/28 08:07:38;;;;;;;14.00;6.70;;;16.50;20.60;;;;;;5046728;28;20781;-78
2022/10/28 08:10:04;;;;;;;9.40;6.00;;;16.60;20.00;;;;;;5043254;28;20441;-77
2022/10/28 08:13:19;;;;;;;11.00;6.63;;;16.60;18.10;;;;;;5040659;28;20476;-77
2022/10/28 08:16:02;;;;;;;21.50;6.90;;;16.70;17.10;;;;;;5051241;28;20523;-81
2022/10/28 08:18:33;;;;;;;16.37;6.77;;;16.80;16.40;;;;;;5049379;28;20390;-81
2022/10/28 08:21:10;;;;;;;13.60;6.50;;;16.80;16.40;;;;;;5042620;28;20407;-81
2022/10/28 08:24:20;;;;;;;13.60;6.43;;;17.00;15.40;;;;;;5048847;28;20386;-81
2022/10/28 08:27:03;;;;;;;13.93;6.83;;;17.10;13.30;;;;;;5045145;28;20463;-81
2022/10/28 08:29:35;;;;;;;12.80;7.90;;;17.30;12.10;;;;;;5045095;28;20461;-79
2022/10/28 08:32:00;;;;;;;15.23;6.70;;;17.40;11.20;;;;;;5041644;28;20465;-77
2022/10/28 08:34:28;;;;;;;14.50;7.40;;;17.50;9.90;;;;;;5044397;28;20485;-77
2022/10/28 08:37:08;;;;;;;18.13;7.70;;;17.60;7.90;;;;;;5041859;28;20176;-78
2022/10/28 08:39:44;;;;;;;17.83;7.03;;;17.80;4.40;;;;;;5054536;28;20440;-77
2022/10/28 08:42:27;;;;;;;14.83;6.63;;;17.90;1.00;;;;;;5044736;28;20417;-78
2022/10/28 08:45:20;;;;;;;13.10;6.33;;;18.00;1.00;;;;;;5048872;28;20760;-81
2022/10/28 08:51:44;;;;;;;29.97;6.10;;;18.20;1.00;;;;;;5041258;28;20480;-82
2022/10/28 08:54:23;;;;;;;11.73;6.80;;;18.30;1.00;;;;;;4970402;28;20456;-82
2022/10/28 08:57:17;;;;;;;12.83;6.10;;;18.30;1.00;;;;;;4973291;28;20519;-82
2022/10/28 08:59:50;;;;;;;18.67;7.20;;;18.40;1.00;;;;;;4973859;28;20452;-81
2022/10/28 09:02:52;;;;;;;9.10;5.30;;;18.60;1.00;;;;;;4971950;28;21096;-78
2022/10/28 09:05:23;;;;;;;15.30;6.20;;;18.60;1.00;;;;;;4967791;28;20448;-79
2022/10/28 09:08:03;;;;;;;21.67;6.80;;;18.80;1.00;;;;;;4982068;28;20818;-78
2022/10/28 09:10:46;;;;;;;14.27;6.27;;;18.80;1.00;;;;;;4972604;28;20447;-78
2022/10/28 09:13:39;;;;;;;16.50;6.80;;;18.80;1.00;;;;;;4974315;28;20561;-78
2022/10/28 09:16:20;;;;;;;23.47;8.10;;;19.00;1.00;;;;;;4975252;28;20524;-78
2022/10/28 09:18:52;;;;;;;12.13;6.93;;;19.00;1.00;;;;;;4973835;28;20421;-77
2022/10/28 09:21:40;;;;;;;19.83;8.00;;;19.20;1.00;;;;;;4974265;28;21031;-78
2022/10/28 09:24:36;;;;;;;26.10;8.00;;;19.20;1.00;;;;;;4973758;28;20458;-77
2022/10/28 09:27:23;;;;;;;29.33;8.00;;;19.30;1.00;;;;;;4973853;28;20422;-78
2022/10/28 09:30:10;;;;;;;20.53;7.73;;;19.50;1.00;;;;;;5012815;28;20466;-77
2022/10/28 09:32:59;;;;;;;22.90;7.70;;;19.60;1.00;;;;;;5036971;28;20418;-82
2022/10/28 09:35:27;;;;;;;15.00;7.20;;;19.60;1.00;;;;;;5040777;28;20432;-82
2022/10/28 09:38:28;;;;;;;17.87;7.20;;;19.70;1.00;;;;;;5047770;28;20420;-82
2022/10/28 09:41:03;;;;;;;13.97;7.13;;;19.70;1.00;;;;;;5032452;28;20784;-82
2022/10/28 09:44:05;;;;;;;19.70;6.60;;;19.70;1.00;;;;;;5032557;28;20410;-83
2022/10/28 09:46:39;;;;;;;14.33;6.00;;;19.70;1.00;;;;;;4969137;28;20762;-78
2022/10/28 09:49:27;;;;;;;15.80;6.63;;;19.80;1.00;;;;;;4972307;28;20527;-78
2022/10/28 09:52:07;;;;;;;9.80;5.83;;;19.90;1.00;;;;;;4955041;28;20428;-77
2022/10/28 09:54:37;;;;;;;12.43;5.60;;;19.90;1.00;;;;;;4960508;28;20497;-78
2022/10/28 09:57:03;;;;;;;17.73;5.50;;;19.80;1.00;;;;;;4967412;28;20504;-78
2022/10/28 09:59:29;;;;;;;10.37;5.30;;;19.90;1.00;;;;;;4960959;28;20432;-78
2022/10/28 10:05:18;;;;;;;11.20;5.70;;;20.00;1.00;;;;;;4960273;28;20430;-82
2022/10/28 10:07:58;;;;;;;14.00;5.70;;;20.10;1.00;;;;;;4965342;28;20401;-82
2022/10/28 10:11:02;;;;;;;10.37;4.70;;;20.20;1.00;;;;;;4960723;28;20475;-82
2022/10/28 10:13:39;;;;;;;16.83;5.70;;;20.20;1.00;;;;;;4934145;29;20436;-83
2022/10/28 10:16:17;;;;;;;15.13;4.73;;;20.50;1.00;;;;;;4931407;29;20436;-82
2022/10/28 10:19:38;;;;;;;10.40;4.23;;;20.70;1.00;;;;;;4964439;28;20462;-83
2022/10/28 10:22:36;;;;;;;16.43;4.43;;;20.90;1.00;;;;;;5025419;28;20422;-81
2022/10/28 10:25:35;;;;;;;9.30;4.27;;;21.10;1.00;;;;;;5024917;28;20875;-77
2022/10/28 10:28:20;;;;;;;19.27;4.03;;;21.20;1.00;;;;;;4972723;28;20794;-81
2022/10/28 10:31:15;;;;;;;14.37;3.97;;;21.40;1.00;;;;;;4972198;28;20450;-81
2022/10/28 10:33:57;;;;;;;14.70;4.20;;;21.50;1.00;;;;;;4977071;28;20438;-82
2022/10/28 10:36:27;;;;;;;12.73;4.00;;;21.30;1.00;;;;;;4975633;28;20409;-83
2022/10/28 10:39:30;;;;;;;11.77;3.77;;;21.50;1.00;;;;;;4956849;28;20457;-83
2022/10/28 10:41:57;;;;;;;11.60;4.00;;;21.40;1.00;;;;;;4972675;28;20986;-83
2022/10/28 10:44:59;;;;;;;10.27;3.97;;;21.50;1.00;;;;;;4956318;28;20795;-83
2022/10/28 10:47:27;;;;;;;17.10;3.93;;;21.50;1.00;;;;;;4973072;28;20805;-83
2022/10/28 10:50:28;;;;;;;13.77;3.20;;;21.40;1.00;;;;;;4972280;28;20971;-83
2022/10/28 10:52:59;;;;;;;11.53;3.90;;;21.50;1.00;;;;;;4973486;28;20846;-83
2022/10/28 10:55:37;;;;;;;9.07;3.30;;;21.60;1.00;;;;;;4979392;28;20455;-82
2022/10/28 10:58:05;;;;;;;15.20;3.87;;;21.60;1.00;;;;;;4980597;28;20454;-84
2022/10/28 11:00:58;;;;;;;10.63;3.80;;;21.50;1.00;;;;;;4992054;28;20399;-83
2022/10/28 11:03:48;;;;;;;9.13;3.80;;;21.60;1.00;;;;;;5017171;28;20459;-77
2022/10/28 11:06:30;;;;;;;12.70;4.30;;;21.80;1.00;;;;;;5041530;28;20416;-77
2022/10/28 11:09:20;;;;;;;13.87;4.03;;;21.80;1.00;;;;;;5053557;28;20413;-78
2022/10/28 11:11:46;;;;;;;16.03;3.47;;;21.80;1.00;;;;;;5048839;28;21016;-77
2022/10/28 11:14:25;;;;;;;11.00;3.70;;;21.80;1.00;;;;;;5043006;28;20516;-77
2022/10/28 11:16:52;;;;;;;6.63;3.40;;;21.80;1.00;;;;;;5038376;28;20185;-77
2022/10/28 11:19:22;;;;;;;11.53;3.33;;;21.80;1.00;;;;;;5041992;28;20463;-77
2022/10/28 11:22:10;;;;;;;15.80;3.80;;;21.90;1.00;;;;;;5039677;28;20840;-77
2022/10/28 11:25:03;;;;;;;24.50;3.80;;;21.90;1.00;;;;;;5055869;28;20469;-77
2022/10/28 11:27:41;;;;;;;15.13;3.07;;;21.90;1.00;;;;;;4976245;28;20427;-77
2022/10/28 11:30:15;;;;;;;15.47;3.27;;;22.20;1.00;;;;;;4975163;28;20564;-78
2022/10/28 11:33:07;;;;;;;11.50;3.47;;;22.30;1.00;;;;;;4976641;28;20923;-77
2022/10/28 11:35:32;;;;;;;12.70;3.63;;;22.40;1.00;;;;;;4976201;28;20794;-76
2022/10/28 11:37:58;;;;;;;6.83;3.03;;;22.50;1.00;;;;;;4976273;28;20422;-77
2022/10/28 11:40:36;;;;;;;17.90;3.70;;;22.50;1.00;;;;;;4976380;28;20177;-76
2022/10/28 11:43:34;;;;;;;11.77;3.20;;;22.50;1.00;;;;;;4975456;28;20188;-77
2022/10/28 11:46:38;;;;;;;7.63;3.00;;;22.70;1.00;;;;;;4968443;28;20502;-77
2022/10/28 11:52:49;;;;;;;9.60;3.17;;;22.80;1.00;;;;;;4933208;29;20413;-83
2022/10/28 11:55:50;;;;;;;6.73;3.43;;;22.80;1.00;;;;;;4936993;29;20451;-83
2022/10/28 11:59:04;;;;;;;14.30;3.50;;;22.80;1.00;;;;;;4950051;29;20452;-83
2022/10/28 12:01:57;;;;;;;16.67;3.90;;;23.00;1.00;;;;;;4938262;29;20424;-82
2022/10/28 12:04:59;;;;;;;12.53;3.17;;;23.00;1.00;;;;;;4955381;28;20607;-82
2022/10/28 12:11:19;;;;;;;10.43;3.10;;;23.40;1.00;;;;;;4994725;28;21028;-83
2022/10/28 12:17:18;;;;;;;16.23;3.03;;;23.50;1.00;;;;;;5008365;28;20915;-83
2022/10/28 12:19:57;;;;;;;8.53;3.00;;;23.40;1.00;;;;;;5004018;28;20463;-84
2022/10/28 12:22:50;;;;;;;11.17;2.70;;;23.40;1.00;;;;;;4996888;28;20512;-84
2022/10/28 12:25:53;;;;;;;12.60;3.10;;;23.50;1.00;;;;;;5021726;28;20427;-82
2022/10/28 12:28:21;;;;;;;11.10;2.83;;;23.60;1.00;;;;;;5036167;28;20409;-83
2022/10/28 12:30:57;;;;;;;9.30;4.00;;;23.70;1.00;;;;;;5047552;28;20437;-84
2022/10/28 12:33:48;;;;;;;15.07;3.17;;;23.60;1.00;;;;;;5050911;28;20507;-75
2022/10/28 12:36:30;;;;;;;8.27;2.83;;;23.60;1.00;;;;;;5051303;28;20539;-75
2022/10/28 12:39:01;;;;;;;10.47;2.90;;;23.60;1.00;;;;;;5048566;28;20436;-77
2022/10/28 12:41:55;;;;;;;9.07;2.57;;;23.60;1.00;;;;;;5053630;28;20446;-76
2022/10/28 12:44:23;;;;;;;10.13;3.07;;;23.70;1.00;;;;;;5048680;28;20514;-77
2022/10/28 12:46:56;;;;;;;10.27;3.07;;;23.70;1.00;;;;;;5054018;28;20436;-75
2022/10/28 12:49:46;;;;;;;13.10;3.07;;;23.80;1.00;;;;;;5053731;28;20408;-75
2022/10/28 12:52:29;;;;;;;11.83;2.87;;;23.90;1.00;;;;;;5053825;28;20432;-75
2022/10/28 12:55:13;;;;;;;9.70;3.47;;;23.90;1.00;;;;;;5053249;28;20471;-75
2022/10/28 12:57:52;;;;;;;14.90;3.00;;;23.90;1.00;;;;;;5046458;28;20791;-76
2022/10/28 13:00:24;;;;;;;15.30;3.00;;;23.80;1.00;;;;;;5042560;28;20502;-76
2022/10/28 13:03:06;;;;;;;10.40;3.30;;;23.80;1.00;;;;;;5051865;28;20899;-77
2022/10/28 13:05:44;;;;;;;9.43;2.57;;;23.80;1.00;;;;;;5047487;28;20515;-77
2022/10/28 13:08:40;;;;;;;5.87;2.60;;;23.80;1.00;;;;;;5055269;28;20417;-77
2022/10/28 13:11:38;;;;;;;9.13;2.93;;;23.80;1.00;;;;;;5046006;28;20464;-76
2022/10/28 13:14:23;;;;;;;11.93;2.90;;;23.90;1.00;;;;;;5035185;28;20421;-77
2022/10/28 13:17:26;;;;;;;3.87;2.60;;;23.90;1.00;;;;;;5042746;28;20455;-77
2022/10/28 13:20:24;;;;;;;9.30;2.80;;;23.90;1.00;;;;;;5041752;28;20508;-85
2022/10/28 13:23:27;;;;;;;8.70;3.10;;;23.90;1.00;;;;;;5051368;28;20438;-85
2022/10/28 13:26:12;;;;;;;15.60;3.07;;;23.90;1.00;;;;;;5040837;28;20459;-84
2022/10/28 13:28:47;;;;;;;8.90;2.90;;;23.80;1.00;;;;;;5054133;28;20422;-85
2022/10/28 13:31:36;;;;;;;13.37;2.87;;;23.80;1.00;;;;;;5042723;28;20823;-85
2022/10/28 13:34:13;;;;;;;8.90;3.23;;;23.80;1.00;;;;;;5043652;28;20513;-78
2022/10/28 13:36:43;;;;;;;11.30;3.17;;;23.90;1.00;;;;;;5043307;28;20461;-77
2022/10/28 13:39:27;;;;;;;12.87;3.03;;;24.00;1.00;;;;;;5034901;28;20414;-77
2022/10/28 13:42:33;;;;;;;14.00;2.83;;;24.30;1.00;;;;;;5043786;28;20422;-77
2022/10/28 13:45:47;;;;;;;18.30;3.23;;;24.50;1.00;;;;;;5042023;28;20395;-77
2022/10/28 13:48:59;;;;;;;23.83;3.80;;;24.70;1.00;;;;;;5053861;28;20431;-78
2022/10/28 13:51:42;;;;;;;9.03;2.97;;;24.80;1.00;;;;;;5004760;28;20466;-77
2022/10/28 13:54:29;;;;;;;13.23;2.93;;;24.90;1.00;;;;;;4995415;28;20928;-76
2022/10/28 13:57:01;;;;;;;18.67;3.70;;;25.00;1.00;;;;;;4976658;28;20978;-77
2022/10/28 13:59:32;;;;;;;10.63;2.50;;;24.80;1.00;;;;;;4992248;28;20443;-76
2022/10/28 14:02:15;;;;;;;10.73;2.90;;;24.80;1.00;;;;;;4993076;28;20916;-76
2022/10/28 14:04:42;;;;;;;17.53;3.63;;;24.80;1.00;;;;;;4991009;28;20443;-77
2022/10/28 14:07:29;;;;;;;13.23;3.03;;;24.80;1.00;;;;;;4992654;28;20788;-78
2022/10/28 14:10:10;;;;;;;15.87;3.07;;;24.80;1.00;;;;;;4990990;28;20472;-79
2022/10/28 14:12:42;;;;;;;10.73;3.13;;;24.70;1.00;;;;;;4995911;28;20650;-76
2022/10/28 14:15:25;;;;;;;9.60;3.17;;;24.70;1.00;;;;;;4995731;28;20529;-77
2022/10/28 14:18:21;;;;;;;14.07;3.70;;;24.70;1.00;;;;;;4974064;28;20916;-79
2022/10/28 14:20:59;;;;;;;13.23;3.30;;;24.90;1.00;;;;;;4972127;28;20441;-77
2022/10/28 14:23:45;;;;;;;11.77;3.13;;;24.90;1.00;;;;;;4990221;28;20480;-78
2022/10/28 14:26:10;;;;;;;12.97;3.40;;;25.00;1.00;;;;;;4992542;28;20417;-78
2022/10/28 14:28:36;;;;;;;9.07;3.53;;;25.00;1.00;;;;;;5024083;28;20773;-78
2022/10/28 14:31:13;;;;;;;10.33;3.13;;;24.90;1.00;;;;;;5048736;28;20253;-78
2022/10/28 14:33:57;;;;;;;20.53;3.47;;;24.90;1.00;;;;;;5048861;28;20422;-86
2022/10/28 14:36:34;;;;;;;8.37;3.17;;;24.90;1.00;;;;;;5047395;28;20470;-85
2022/10/28 14:39:03;;;;;;;8.53;2.83;;;24.90;1.00;;;;;;5043154;28;20389;-84
2022/10/28 14:45:09;;;;;;;11.40;3.43;;;24.80;1.00;;;;;;5049870;28;20425;-85
2022/10/28 14:48:17;;;;;;;16.10;2.93;;;24.70;1.00;;;;;;5045971;28;20509;-85
2022/10/28 14:51:00;;;;;;;9.40;2.90;;;24.60;1.00;;;;;;5061491;28;20460;-84
2022/10/28 14:53:55;;;;;;;10.63;2.80;;;24.50;1.00;;;;;;5040543;28;20409;-85
2022/10/28 14:56:23;;;;;;;21.53;4.83;;;24.30;1.00;;;;;;5045465;28;20457;-85
2022/10/28 14:59:12;;;;;;;9.83;3.27;;;24.20;1.00;;;;;;5047226;28;20440;-84
2022/10/28 15:02:13;;;;;;;11.00;2.90;;;23.90;1.00;;;;;;5034080;28;20409;-83
2022/10/28 15:04:41;;;;;;;23.63;2.83;;;23.60;1.00;;;;;;5004861;28;20438;-78
2022/10/28 15:07:19;;;;;;;7.20;3.10;;;23.60;1.00;;;;;;5015336;28;21034;-75
2022/10/28 15:09:52;;;;;;;13.80;3.27;;;23.40;1.00;;;;;;5014573;28;20556;-75
2022/10/28 15:12:24;;;;;;;9.83;3.27;;;23.30;1.00;;;;;;5012785;28;20460;-75
2022/10/28 15:14:55;;;;;;;12.73;3.60;;;23.20;1.00;;;;;;5015071;28;20423;-75
2022/10/28 15:17:38;;;;;;;11.10;3.53;;;23.00;1.00;;;;;;5015374;28;20421;-75
2022/10/28 15:20:28;;;;;;;12.83;3.30;;;23.00;1.00;;;;;;4991618;28;20533;-84
2022/10/28 15:23:24;;;;;;;18.27;3.30;;;22.90;1.00;;;;;;5012101;28;20482;-84
2022/10/28 15:26:21;;;;;;;10.10;2.83;;;22.80;1.00;;;;;;4976151;28;20442;-84
2022/10/28 15:28:47;;;;;;;9.80;3.50;;;22.70;1.00;;;;;;4975124;28;20965;-83
2022/10/28 15:31:21;;;;;;;12.90;3.87;;;22.60;1.00;;;;;;4971606;28;20470;-84
2022/10/28 15:33:51;;;;;;;7.13;3.43;;;22.50;1.00;;;;;;4976327;28;20234;-76
2022/10/28 15:36:23;;;;;;;15.27;3.77;;;22.40;1.00;;;;;;4976037;28;20929;-75
2022/10/28 15:38:49;;;;;;;25.80;4.33;;;22.40;1.00;;;;;;4975560;28;20480;-75
2022/10/28 15:41:39;;;;;;;19.80;3.90;;;22.30;1.00;;;;;;5011823;28;20404;-75
2022/10/28 15:44:34;;;;;;;19.50;4.17;;;22.20;1.00;;;;;;5002748;28;20462;-75
2022/10/28 15:47:18;;;;;;;16.60;3.10;;;22.10;1.00;;;;;;5005610;28;20411;-78
2022/10/28 15:50:14;;;;;;;22.30;4.03;;;22.00;1.00;;;;;;5013979;28;20463;-84
2022/10/28 15:52:48;;;;;;;14.07;3.73;;;21.80;1.00;;;;;;4928249;29;20558;-84
2022/10/28 15:55:33;;;;;;;17.93;3.60;;;21.80;1.00;;;;;;4948401;29;20447;-84